createdAt,value
2018-05-01T00:00:41.506Z,9.53
2018-05-01T00:01:46.449Z,8.43
2018-05-01T00:02:50.607Z,9.70
2018-05-01T00:03:54.766Z,9.33
2018-05-01T00:04:59.716Z,10.80
2018-05-01T00:06:03.882Z,8.87
2018-05-01T00:07:08.029Z,10.77
2018-05-01T00:08:12.204Z,10.33
2018-05-01T00:09:17.148Z,8.90
2018-05-01T00:10:22.092Z,8.50
2018-05-01T00:11:26.273Z,6.03
2018-05-01T00:12:31.210Z,7.67
2018-05-01T00:13:36.118Z,7.70
2018-05-01T00:14:41.049Z,8.97
2018-05-01T00:15:45.245Z,8.20
2018-05-01T00:16:49.428Z,7.70
2018-05-01T00:17:53.712Z,9.10
2018-05-01T00:18:57.860Z,9.50
2018-05-01T00:20:02.007Z,7.63
2018-05-01T00:21:06.920Z,8.57
2018-05-01T00:22:11.068Z,6.70
2018-05-01T00:23:15.273Z,8.67
2018-05-01T00:24:19.414Z,7.83
2018-05-01T00:25:23.564Z,6.80
2018-05-01T00:26:28.481Z,5.80
2018-05-01T00:27:32.629Z,7.30
2018-05-01T00:28:36.820Z,6.20
2018-05-01T00:29:41.742Z,6.73
2018-05-01T00:30:46.657Z,6.70
2018-05-01T00:31:50.810Z,9.70
2018-05-01T00:32:54.961Z,5.17
2018-05-01T00:33:59.133Z,7.00
2018-05-01T00:35:03.291Z,5.00
2018-05-01T00:36:07.454Z,5.93
2018-05-01T00:37:11.624Z,6.87
2018-05-01T00:38:16.548Z,6.00
2018-05-01T00:39:20.853Z,8.43
2018-05-01T00:40:25.005Z,6.60
2018-05-01T00:41:29.166Z,5.50
2018-05-01T00:42:33.313Z,5.13
2018-05-01T00:43:37.460Z,4.83
2018-05-01T00:44:41.819Z,4.60
2018-05-01T00:45:45.961Z,4.23
2018-05-01T00:46:50.197Z,4.20
2018-05-01T00:47:54.344Z,5.03
2018-05-01T00:48:59.273Z,4.60
2018-05-01T00:50:03.478Z,4.97
2018-05-01T00:51:07.641Z,3.93
2018-05-01T00:52:29.447Z,5.30
2018-05-01T00:53:33.624Z,3.20
2018-05-01T00:54:37.785Z,4.03
2018-05-01T00:55:41.967Z,4.00
2018-05-01T00:56:46.906Z,3.03
2018-05-01T00:57:51.065Z,5.43
2018-05-01T00:58:55.218Z,3.93
2018-05-01T00:59:59.373Z,3.80
2018-05-01T01:01:03.549Z,2.53
2018-05-01T01:02:07.705Z,3.23
2018-05-01T01:03:11.858Z,1.87
2018-05-01T01:04:16.067Z,2.37
2018-05-01T01:05:20.217Z,4.23
2018-05-01T01:06:24.361Z,3.20
2018-05-01T01:07:29.293Z,3.40
2018-05-01T01:08:34.204Z,3.00
2018-05-01T01:09:38.393Z,1.20
2018-05-01T01:10:42.540Z,2.00
2018-05-01T01:11:47.456Z,1.40
2018-05-01T01:12:51.605Z,1.50
2018-05-01T01:13:55.749Z,0.87
2018-05-01T01:15:00.088Z,1.27
2018-05-01T01:16:04.249Z,1.37
2018-05-01T01:17:08.406Z,1.17
2018-05-01T01:18:12.561Z,1.23
2018-05-01T01:19:16.709Z,0.63
2018-05-01T01:20:22.401Z,1.60
2018-05-01T01:21:26.557Z,0.73
2018-05-01T01:22:30.721Z,1.63
2018-05-01T01:23:34.884Z,0.67
2018-05-01T01:24:39.041Z,2.93
2018-05-01T01:25:43.333Z,0.53
2018-05-01T01:26:48.256Z,1.27
2018-05-01T01:27:53.177Z,0.60
2018-05-01T01:28:57.325Z,0.60
2018-05-01T01:30:01.479Z,0.40
2018-05-01T01:31:06.121Z,0.60
2018-05-01T01:32:15.996Z,0.57
2018-05-01T01:33:20.173Z,2.30
2018-05-01T01:34:25.106Z,2.03
2018-05-01T01:35:29.251Z,0.80
2018-05-01T01:36:32.633Z,0.90
2018-05-01T01:37:36.033Z,0.80
2018-05-01T01:38:39.389Z,2.20
2018-05-01T01:39:43.532Z,0.60
2018-05-01T01:40:46.906Z,2.23
2018-05-01T01:41:50.293Z,0.53
2018-05-01T01:42:54.436Z,0.80
2018-05-01T01:43:57.789Z,1.00
2018-05-01T01:45:02.087Z,0.50
2018-05-01T01:46:05.453Z,0.63
2018-05-01T01:47:08.804Z,0.50
2018-05-01T01:48:12.160Z,0.90
2018-05-01T01:49:15.529Z,2.10
2018-05-01T01:50:18.912Z,0.50
2018-05-01T01:51:22.273Z,1.70
2018-05-01T01:52:25.637Z,0.80
2018-05-01T01:53:29.761Z,2.10
2018-05-01T01:54:33.116Z,0.80
2018-05-01T01:55:36.516Z,0.40
2018-05-01T01:56:40.637Z,0.50
2018-05-01T01:57:44.774Z,0.67
2018-05-01T01:58:48.130Z,1.17
2018-05-01T01:59:52.253Z,0.97
2018-05-01T02:00:56.424Z,0.50
2018-05-01T02:01:59.799Z,1.00
2018-05-01T02:03:03.162Z,0.50
2018-05-01T02:04:06.521Z,0.60
2018-05-01T02:05:10.648Z,1.97
2018-05-01T02:06:14.217Z,0.90
2018-05-01T02:07:18.353Z,1.07
2018-05-01T02:08:21.722Z,1.07
2018-05-01T02:09:25.849Z,0.60
2018-05-01T02:10:29.218Z,0.97
2018-05-01T02:11:33.405Z,1.40
2018-05-01T02:12:36.765Z,2.00
2018-05-01T02:13:40.121Z,0.90
2018-05-01T02:14:44.377Z,4.90
2018-05-01T02:15:47.744Z,0.57
2018-05-01T02:16:51.327Z,0.83
2018-05-01T02:17:54.693Z,0.70
2018-05-01T02:18:58.048Z,0.70
2018-05-01T02:20:01.400Z,0.67
2018-05-01T02:21:04.766Z,1.33
2018-05-01T02:22:08.568Z,0.50
2018-05-01T02:23:12.685Z,2.20
2018-05-01T02:24:16.835Z,1.00
2018-05-01T02:25:20.192Z,1.00
2018-05-01T02:26:23.589Z,0.50
2018-05-01T02:27:26.969Z,0.50
2018-05-01T02:28:31.128Z,0.90
2018-05-01T02:29:34.498Z,0.40
2018-05-01T02:30:37.856Z,0.87
2018-05-01T02:31:41.985Z,0.80
2018-05-01T02:32:45.344Z,0.80
2018-05-01T02:33:49.981Z,0.60
2018-05-01T02:34:54.231Z,1.17
2018-05-01T02:35:57.590Z,0.47
2018-05-01T02:37:00.958Z,0.60
2018-05-01T02:38:04.313Z,0.80
2018-05-01T02:39:07.713Z,0.60
2018-05-01T02:40:11.076Z,0.60
2018-05-01T02:41:14.457Z,1.73
2018-05-01T02:42:17.825Z,0.60
2018-05-01T02:43:21.949Z,0.50
2018-05-01T02:44:25.524Z,0.70
2018-05-01T02:45:29.646Z,0.50
2018-05-01T02:46:33.768Z,1.87
2018-05-01T02:47:37.125Z,1.57
2018-05-01T02:48:40.488Z,0.80
2018-05-01T02:49:44.230Z,0.97
2018-05-01T02:50:48.365Z,1.27
2018-05-01T02:51:51.720Z,1.10
2018-05-01T02:52:55.861Z,1.20
2018-05-01T02:53:59.208Z,0.90
2018-05-01T02:55:02.596Z,0.73
2018-05-01T02:56:05.952Z,0.93
2018-05-01T02:57:09.304Z,3.37
2018-05-01T02:58:13.437Z,2.00
2018-05-01T02:59:16.804Z,1.70
2018-05-01T03:00:20.958Z,1.00
2018-05-01T03:01:24.295Z,2.73
2018-05-01T03:02:28.425Z,1.10
2018-05-01T03:03:31.829Z,2.37
2018-05-01T03:04:35.189Z,1.70
2018-05-01T03:05:39.321Z,2.30
2018-05-01T03:06:42.677Z,2.10
2018-05-01T03:07:46.806Z,4.50
2018-05-01T03:08:51.413Z,2.67
2018-05-01T03:09:55.554Z,1.03
2018-05-01T03:10:58.921Z,1.37
2018-05-01T03:12:03.073Z,0.80
2018-05-01T03:13:06.433Z,1.17
2018-05-01T03:14:09.830Z,1.27
2018-05-01T03:15:13.200Z,0.80
2018-05-01T03:16:17.326Z,1.63
2018-05-01T03:17:20.705Z,1.67
2018-05-01T03:18:24.833Z,0.90
2018-05-01T03:19:28.324Z,1.10
2018-05-01T03:20:31.690Z,1.23
2018-05-01T03:21:35.818Z,1.13
2018-05-01T03:22:39.233Z,1.70
2018-05-01T03:23:42.591Z,0.73
2018-05-01T03:24:46.726Z,1.93
2018-05-01T03:25:50.085Z,4.77
2018-05-01T03:26:54.218Z,1.90
2018-05-01T03:27:57.802Z,2.40
2018-05-01T03:29:01.161Z,1.13
2018-05-01T03:30:04.517Z,0.90
2018-05-01T03:31:07.873Z,1.23
2018-05-01T03:32:11.237Z,1.17
2018-05-01T03:33:14.624Z,2.87
2018-05-01T03:34:18.001Z,2.50
2018-05-01T03:35:21.360Z,2.20
2018-05-01T03:36:24.715Z,1.67
2018-05-01T03:37:28.886Z,1.60
2018-05-01T03:38:32.264Z,1.90
2018-05-01T03:39:35.622Z,4.23
2018-05-01T03:40:38.987Z,2.20
2018-05-01T03:41:43.189Z,2.50
2018-05-01T03:42:46.553Z,1.90
2018-05-01T03:43:49.920Z,2.73
2018-05-01T03:44:53.289Z,2.00
2018-05-01T03:45:57.413Z,3.50
2018-05-01T03:47:00.809Z,3.03
2018-05-01T03:48:04.166Z,4.60
2018-05-01T03:49:08.301Z,2.10
2018-05-01T03:50:11.653Z,2.27
2018-05-01T03:51:15.023Z,1.97
2018-05-01T03:52:18.436Z,2.50
2018-05-01T03:53:23.300Z,2.10
2018-05-01T03:54:27.804Z,3.60
2018-05-01T03:55:31.245Z,2.77
2018-05-01T03:56:34.614Z,2.50
2018-05-01T03:57:38.473Z,2.03
2018-05-01T03:58:41.825Z,3.63
2018-05-01T03:59:45.193Z,3.57
2018-05-01T04:00:48.558Z,1.60
2018-05-01T04:01:52.681Z,1.33
2018-05-01T04:02:56.057Z,1.70
2018-05-01T04:04:00.185Z,3.80
2018-05-01T04:05:05.497Z,1.07
2018-05-01T04:06:09.624Z,4.00
2018-05-01T04:07:12.981Z,2.90
2018-05-01T04:08:16.345Z,1.43
2018-05-01T04:09:19.715Z,2.90
2018-05-01T04:10:23.404Z,4.90
2018-05-01T04:11:26.774Z,2.53
2018-05-01T04:12:30.889Z,2.30
2018-05-01T04:13:34.245Z,2.30
2018-05-01T04:14:37.613Z,1.93
2018-05-01T04:15:41.136Z,1.13
2018-05-01T04:16:44.504Z,4.90
2018-05-01T04:17:47.869Z,4.77
2018-05-01T04:18:51.224Z,1.53
2018-05-01T04:19:55.345Z,2.73
2018-05-01T04:20:58.729Z,1.77
2018-05-01T04:22:02.877Z,3.63
2018-05-01T04:23:06.240Z,1.50
2018-05-01T04:24:09.608Z,1.07
2018-05-01T04:25:13.736Z,1.03
2018-05-01T04:26:17.152Z,2.17
2018-05-01T04:27:20.514Z,3.10
2018-05-01T04:28:23.876Z,2.97
2018-05-01T04:29:27.234Z,1.37
2018-05-01T04:30:30.637Z,2.97
2018-05-01T04:31:34.004Z,1.87
2018-05-01T04:32:37.371Z,1.53
2018-05-01T04:33:40.725Z,1.23
2018-05-01T04:34:44.083Z,1.57
2018-05-01T04:35:47.492Z,1.50
2018-05-01T04:36:50.857Z,3.50
2018-05-01T04:37:54.215Z,1.43
2018-05-01T04:38:58.332Z,1.50
2018-05-01T04:40:01.693Z,7.87
2018-05-01T04:41:05.202Z,2.30
2018-05-01T04:42:09.330Z,4.13
2018-05-01T04:43:12.693Z,1.27
2018-05-01T04:44:16.048Z,1.07
2018-05-01T04:45:19.404Z,1.77
2018-05-01T04:46:23.123Z,1.90
2018-05-01T04:47:26.486Z,8.77
2018-05-01T04:48:29.845Z,4.43
2018-05-01T04:49:33.200Z,1.90
2018-05-01T04:50:36.570Z,1.43
2018-05-01T04:51:40.058Z,2.30
2018-05-01T04:52:43.398Z,1.20
2018-05-01T04:53:46.771Z,1.00
2018-05-01T04:54:50.121Z,2.93
2018-05-01T04:55:54.244Z,4.33
2018-05-01T04:56:57.639Z,1.53
2018-05-01T04:58:00.997Z,3.00
2018-05-01T04:59:04.345Z,2.73
2018-05-01T05:00:07.706Z,4.90
2018-05-01T05:01:11.064Z,3.70
2018-05-01T05:02:14.883Z,4.93
2018-05-01T05:03:19.021Z,3.77
2018-05-01T05:04:22.386Z,4.20
2018-05-01T05:05:26.513Z,2.90
2018-05-01T05:06:29.883Z,1.30
2018-05-01T05:07:34.038Z,1.87
2018-05-01T05:08:37.396Z,5.10
2018-05-01T05:09:40.754Z,6.73
2018-05-01T05:10:44.120Z,3.97
2018-05-01T05:11:47.505Z,0.93
2018-05-01T05:12:50.867Z,2.40
2018-05-01T05:13:54.219Z,5.73
2018-05-01T05:14:57.582Z,3.17
2018-05-01T05:16:01.413Z,2.73
2018-05-01T05:17:04.776Z,3.70
2018-05-01T05:18:08.140Z,3.67
2018-05-01T05:19:11.510Z,2.13
2018-05-01T05:20:14.878Z,6.17
2018-05-01T05:21:18.285Z,1.60
2018-05-01T05:22:22.409Z,2.43
2018-05-01T05:23:25.760Z,5.30
2018-05-01T05:24:29.126Z,4.73
2018-05-01T05:25:32.485Z,1.43
2018-05-01T05:26:36.044Z,1.97
2018-05-01T05:27:40.175Z,2.83
2018-05-01T05:28:43.548Z,4.20
2018-05-01T05:29:47.685Z,2.00
2018-05-01T05:30:51.040Z,1.20
2018-05-01T05:31:54.533Z,1.10
2018-05-01T05:32:57.889Z,3.33
2018-05-01T05:34:01.253Z,2.27
2018-05-01T05:35:04.614Z,1.60
2018-05-01T05:36:08.746Z,10.73
2018-05-01T05:37:12.134Z,0.97
2018-05-01T05:38:15.498Z,2.00
2018-05-01T05:39:18.865Z,1.37
2018-05-01T05:40:22.225Z,1.00
2018-05-01T05:41:25.576Z,1.40
2018-05-01T05:42:29.721Z,4.80
2018-05-01T05:43:33.218Z,1.53
2018-05-01T05:44:36.581Z,1.47
2018-05-01T05:45:40.717Z,1.13
2018-05-01T05:46:44.191Z,1.73
2018-05-01T05:47:47.544Z,1.10
2018-05-01T05:48:50.992Z,1.73
2018-05-01T05:49:54.304Z,1.87
2018-05-01T05:50:57.685Z,4.60
2018-05-01T05:52:01.050Z,3.60
2018-05-01T05:53:04.406Z,1.50
2018-05-01T05:54:07.770Z,2.43
2018-05-01T05:55:11.132Z,1.03
2018-05-01T05:56:14.525Z,3.17
2018-05-01T05:57:17.887Z,4.30
2018-05-01T05:58:22.148Z,2.83
2018-05-01T05:59:26.221Z,1.70
2018-05-01T06:00:29.579Z,2.60
2018-05-01T06:01:32.938Z,2.97
2018-05-01T06:02:36.298Z,1.70
2018-05-01T06:03:39.725Z,1.50
2018-05-01T06:04:43.080Z,3.13
2018-05-01T06:05:46.453Z,2.40
2018-05-01T06:06:50.580Z,3.37
2018-05-01T06:07:53.936Z,2.63
2018-05-01T06:08:57.440Z,3.27
2018-05-01T06:10:01.577Z,1.83
2018-05-01T06:11:04.946Z,1.57
2018-05-01T06:12:09.075Z,2.43
2018-05-01T06:13:12.451Z,2.23
2018-05-01T06:14:16.754Z,1.70
2018-05-01T06:15:20.885Z,3.77
2018-05-01T06:16:24.247Z,6.60
2018-05-01T06:17:27.644Z,1.13
2018-05-01T06:18:31.768Z,3.60
2018-05-01T06:19:35.152Z,9.60
2018-05-01T06:20:39.268Z,4.33
2018-05-01T06:21:42.641Z,5.80
2018-05-01T06:22:46.777Z,5.50
2018-05-01T06:23:50.140Z,2.03
2018-05-01T06:24:54.324Z,1.80
2018-05-01T06:25:57.681Z,1.83
2018-05-01T06:27:01.036Z,4.80
2018-05-01T06:28:05.156Z,4.03
2018-05-01T06:29:08.512Z,3.40
2018-05-01T06:30:11.898Z,2.33
2018-05-01T06:31:15.273Z,3.43
2018-05-01T06:32:18.688Z,1.33
2018-05-01T06:33:22.055Z,6.03
2018-05-01T06:34:25.419Z,3.47
2018-05-01T06:35:28.776Z,2.80
2018-05-01T06:36:32.928Z,6.70
2018-05-01T06:37:36.396Z,2.60
2018-05-01T06:38:40.526Z,2.07
2018-05-01T06:39:43.887Z,3.60
2018-05-01T06:40:48.018Z,1.53
2018-05-01T06:41:51.384Z,7.50
2018-05-01T06:42:55.554Z,2.67
2018-05-01T06:43:58.913Z,1.80
2018-05-01T06:45:02.288Z,1.90
2018-05-01T06:46:05.640Z,7.30
2018-05-01T06:47:09.026Z,6.03
2018-05-01T06:48:12.394Z,2.70
2018-05-01T06:49:15.754Z,2.60
2018-05-01T06:50:19.108Z,5.50
2018-05-01T06:51:24.002Z,4.83
2018-05-01T06:52:27.367Z,2.80
2018-05-01T06:53:30.729Z,2.40
2018-05-01T06:54:34.857Z,3.50
2018-05-01T06:55:38.980Z,4.83
2018-05-01T06:56:42.550Z,3.47
2018-05-01T06:57:46.760Z,2.53
2018-05-01T06:58:50.058Z,3.50
2018-05-01T06:59:54.187Z,5.30
2018-05-01T07:00:57.544Z,3.13
2018-05-01T07:02:01.688Z,3.67
2018-05-01T07:03:05.064Z,5.97
2018-05-01T07:04:08.450Z,1.50
2018-05-01T07:05:12.581Z,6.53
2018-05-01T07:06:15.967Z,2.30
2018-05-01T07:07:19.333Z,1.40
2018-05-01T07:08:23.468Z,1.93
2018-05-01T07:09:27.035Z,9.60
2018-05-01T07:10:31.157Z,4.80
2018-05-01T07:11:34.533Z,4.30
2018-05-01T07:12:38.664Z,4.83
2018-05-01T07:13:42.024Z,3.03
2018-05-01T07:14:46.225Z,4.50
2018-05-01T07:15:49.588Z,7.00
2018-05-01T07:16:52.968Z,7.90
2018-05-01T07:17:56.328Z,4.40
2018-05-01T07:19:00.451Z,2.80
2018-05-01T07:20:03.837Z,6.17
2018-05-01T07:21:07.242Z,3.60
2018-05-01T07:22:10.638Z,4.90
2018-05-01T07:23:14.033Z,3.60
2018-05-01T07:24:17.397Z,5.77
2018-05-01T07:25:20.753Z,2.90
2018-05-01T07:26:24.126Z,10.70
2018-05-01T07:27:27.554Z,5.67
2018-05-01T07:28:30.909Z,8.40
2018-05-01T07:29:34.270Z,7.07
2018-05-01T07:30:37.777Z,6.23
2018-05-01T07:31:41.132Z,3.43
2018-05-01T07:32:44.522Z,4.27
2018-05-01T07:33:48.686Z,2.30
2018-05-01T07:34:52.096Z,4.33
2018-05-01T07:35:55.478Z,1.87
2018-05-01T07:36:58.850Z,3.67
2018-05-01T07:38:02.232Z,6.73
2018-05-01T07:39:05.794Z,5.50
2018-05-01T07:40:09.315Z,1.73
2018-05-01T07:41:13.635Z,3.83
2018-05-01T07:42:17.630Z,3.43
2018-05-01T07:43:20.997Z,3.60
2018-05-01T07:44:25.451Z,2.20
2018-05-01T07:45:28.839Z,1.23
2018-05-01T07:46:32.252Z,8.53
2018-05-01T07:47:35.630Z,3.97
2018-05-01T07:48:38.988Z,2.60
2018-05-01T07:49:42.684Z,2.43
2018-05-01T07:50:46.919Z,2.53
2018-05-01T07:51:50.638Z,3.10
2018-05-01T07:52:54.002Z,6.57
2018-05-01T07:53:57.374Z,11.37
2018-05-01T07:55:00.760Z,2.63
2018-05-01T07:56:04.133Z,3.53
2018-05-01T07:57:08.290Z,2.07
2018-05-01T07:58:11.650Z,3.77
2018-05-01T07:59:15.833Z,6.10
2018-05-01T08:00:19.247Z,3.17
2018-05-01T08:01:23.451Z,1.20
2018-05-01T08:02:26.858Z,0.80
2018-05-01T08:03:30.229Z,2.63
2018-05-01T08:04:34.362Z,3.53
2018-05-01T08:05:37.816Z,1.10
2018-05-01T08:06:41.233Z,1.67
2018-05-01T08:07:45.492Z,2.93
2018-05-01T08:08:48.891Z,4.50
2018-05-01T08:09:52.288Z,1.57
2018-05-01T08:10:55.658Z,1.00
2018-05-01T08:11:59.093Z,2.43
2018-05-01T08:13:01.999Z,0.80
2018-05-01T08:14:05.212Z,4.90
2018-05-01T08:15:08.701Z,2.83
2018-05-01T08:16:12.110Z,2.10
2018-05-01T08:17:15.655Z,1.43
2018-05-01T08:18:19.037Z,1.17
2018-05-01T08:19:23.348Z,2.43
2018-05-01T08:20:27.482Z,1.37
2018-05-01T08:21:30.854Z,1.40
2018-05-01T08:22:34.998Z,0.97
2018-05-01T08:23:38.367Z,2.20
2018-05-01T08:24:41.941Z,3.90
2018-05-01T08:25:46.560Z,3.57
2018-05-01T08:26:50.081Z,1.03
2018-05-01T08:27:53.469Z,1.70
2018-05-01T08:28:57.600Z,2.20
2018-05-01T08:30:01.371Z,1.43
2018-05-01T08:31:05.505Z,2.40
2018-05-01T08:32:08.874Z,2.40
2018-05-01T08:33:13.006Z,1.33
2018-05-01T08:34:16.489Z,1.50
2018-05-01T08:35:20.061Z,1.97
2018-05-01T08:36:24.194Z,5.60
2018-05-01T08:37:27.557Z,3.33
2018-05-01T08:38:30.917Z,3.83
2018-05-01T08:39:34.277Z,2.87
2018-05-01T08:40:37.969Z,0.93
2018-05-01T08:41:41.328Z,4.10
2018-05-01T08:42:44.706Z,2.00
2018-05-01T08:43:48.078Z,3.23
2018-05-01T08:44:51.447Z,1.53
2018-05-01T08:45:54.952Z,2.10
2018-05-01T08:46:58.407Z,2.73
2018-05-01T08:48:02.656Z,3.27
2018-05-01T08:49:06.029Z,2.70
2018-05-01T08:50:09.393Z,3.40
2018-05-01T08:51:13.537Z,2.07
2018-05-01T08:52:16.905Z,2.30
2018-05-01T08:53:20.789Z,1.23
2018-05-01T08:54:25.458Z,2.40
2018-05-01T08:55:29.001Z,4.37
2018-05-01T08:56:33.132Z,2.53
2018-05-01T08:57:36.497Z,2.00
2018-05-01T08:58:40.764Z,5.10
2018-05-01T08:59:44.741Z,2.83
2018-05-01T09:00:48.115Z,2.87
2018-05-01T09:01:52.237Z,4.23
2018-05-01T09:02:55.600Z,3.00
2018-05-01T09:03:58.980Z,2.00
2018-05-01T09:05:02.341Z,2.53
2018-05-01T09:06:05.697Z,3.87
2018-05-01T09:07:09.113Z,2.20
2018-05-01T09:08:12.660Z,1.83
2018-05-01T09:09:16.161Z,2.70
2018-05-01T09:10:19.533Z,3.23
2018-05-01T09:11:22.897Z,5.27
2018-05-01T09:12:26.544Z,1.90
2018-05-01T09:13:29.929Z,3.67
2018-05-01T09:14:33.334Z,4.20
2018-05-01T09:15:37.461Z,2.40
2018-05-01T09:16:40.854Z,5.40
2018-05-01T09:17:44.349Z,4.40
2018-05-01T09:18:47.609Z,3.13
2018-05-01T09:19:51.193Z,3.70
2018-05-01T09:20:54.642Z,6.00
2018-05-01T09:21:58.197Z,4.17
2018-05-01T09:23:02.614Z,2.90
2018-05-01T09:24:06.663Z,3.13
2018-05-01T09:25:10.181Z,3.47
2018-05-01T09:26:13.637Z,4.23
2018-05-01T09:27:17.707Z,3.07
2018-05-01T09:28:21.266Z,3.07
2018-05-01T09:29:24.702Z,2.60
2018-05-01T09:30:28.824Z,3.30
2018-05-01T09:31:32.184Z,5.87
2018-05-01T09:32:35.561Z,4.53
2018-05-01T09:33:39.405Z,4.50
2018-05-01T09:34:42.766Z,5.10
2018-05-01T09:35:46.201Z,2.83
2018-05-01T09:36:49.582Z,4.50
2018-05-01T09:37:52.945Z,4.70
2018-05-01T09:38:56.301Z,3.17
2018-05-01T09:39:59.664Z,2.40
2018-05-01T09:41:03.212Z,4.87
2018-05-01T09:42:06.576Z,5.70
2018-05-01T09:43:10.058Z,3.13
2018-05-01T09:44:13.443Z,2.60
2018-05-01T09:45:18.990Z,8.70
2018-05-01T09:46:22.762Z,4.03
2018-05-01T09:47:26.909Z,5.80
2018-05-01T09:48:30.284Z,7.30
2018-05-01T09:49:33.685Z,4.33
2018-05-01T09:50:37.268Z,8.67
2018-05-01T09:51:40.708Z,4.70
2018-05-01T09:52:46.397Z,5.73
2018-05-01T09:53:50.592Z,6.77
2018-05-01T09:54:55.513Z,7.30
2018-05-01T09:56:00.774Z,3.70
2018-05-01T09:57:04.955Z,3.83
2018-05-01T09:58:09.880Z,12.97
2018-05-01T09:59:14.872Z,7.33
2018-05-01T10:00:25.201Z,7.70
2018-05-01T10:01:29.414Z,4.57
2018-05-01T10:02:33.598Z,11.60
2018-05-01T10:03:38.554Z,6.17
2018-05-01T10:04:42.705Z,6.80
2018-05-01T10:05:46.893Z,5.27
2018-05-01T10:06:51.045Z,10.97
2018-05-01T10:07:55.973Z,4.20
2018-05-01T10:09:01.284Z,5.57
2018-05-01T10:10:05.460Z,8.90
2018-05-01T10:11:09.616Z,5.47
2018-05-01T10:12:13.871Z,14.00
2018-05-01T10:13:18.491Z,10.57
2018-05-01T10:14:22.650Z,9.53
2018-05-01T10:15:26.842Z,9.40
2018-05-01T10:16:31.012Z,9.90
2018-05-01T10:17:35.158Z,6.60
2018-05-01T10:18:39.513Z,6.90
2018-05-01T10:19:44.445Z,10.77
2018-05-01T10:20:49.368Z,10.83
2018-05-01T10:21:54.297Z,8.80
2018-05-01T10:22:59.216Z,13.50
2018-05-01T10:24:03.542Z,6.00
2018-05-01T10:25:08.477Z,11.53
2018-05-01T10:26:12.665Z,11.77
2018-05-01T10:27:16.841Z,9.30
2018-05-01T10:28:21.029Z,13.03
2018-05-01T10:29:25.212Z,13.63
2018-05-01T10:30:30.180Z,6.33
2018-05-01T10:31:34.333Z,15.43
2018-05-01T10:32:38.498Z,11.33
2018-05-01T10:33:42.679Z,11.27
2018-05-01T10:34:46.993Z,11.60
2018-05-01T10:35:51.153Z,13.53
2018-05-01T10:36:55.322Z,12.33
2018-05-01T10:37:59.482Z,9.90
2018-05-01T10:39:04.571Z,15.37
2018-05-01T10:40:09.465Z,12.63
2018-05-01T10:41:14.389Z,13.50
2018-05-01T10:42:19.382Z,10.87
2018-05-01T10:43:23.541Z,15.27
2018-05-01T10:44:27.737Z,11.77
2018-05-01T10:45:31.925Z,16.23
2018-05-01T10:46:36.086Z,13.10
2018-05-01T10:47:40.290Z,13.33
2018-05-01T10:48:44.471Z,13.67
2018-05-01T10:49:48.670Z,12.80
2018-05-01T10:50:52.915Z,13.30
2018-05-01T10:51:57.097Z,14.83
2018-05-01T10:53:01.301Z,18.33
2018-05-01T10:54:06.970Z,12.10
2018-05-01T10:55:11.893Z,19.83
2018-05-01T10:56:16.079Z,15.23
2018-05-01T10:57:20.248Z,13.80
2018-05-01T10:58:24.937Z,17.30
2018-05-01T10:59:29.856Z,15.23
2018-05-01T11:00:34.816Z,14.00
2018-05-01T11:01:38.989Z,12.67
2018-05-01T11:02:43.145Z,10.63
2018-05-01T11:03:47.527Z,14.00
2018-05-01T11:04:52.457Z,12.03
2018-05-01T11:05:57.380Z,11.93
2018-05-01T11:07:02.322Z,17.30
2018-05-01T11:08:06.481Z,11.53
2018-05-01T11:09:10.680Z,11.40
2018-05-01T11:10:14.850Z,13.17
2018-05-01T11:11:19.031Z,16.97
2018-05-01T11:12:23.273Z,11.43
2018-05-01T11:13:27.433Z,10.60
2018-05-01T11:14:31.612Z,10.50
2018-05-01T11:15:35.798Z,16.10
2018-05-01T11:16:40.730Z,14.53
2018-05-01T11:17:44.893Z,12.40
2018-05-01T11:18:49.054Z,15.83
2018-05-01T11:19:53.246Z,12.17
2018-05-01T11:20:58.174Z,9.00
2018-05-01T11:22:03.109Z,8.40
2018-05-01T11:23:07.526Z,13.47
2018-05-01T11:24:12.445Z,7.07
2018-05-01T11:25:17.377Z,13.67
2018-05-01T11:26:22.309Z,7.93
2018-05-01T11:27:26.482Z,10.97
2018-05-01T11:28:32.256Z,11.50
2018-05-01T11:29:36.389Z,11.13
2018-05-01T11:30:40.558Z,11.10
2018-05-01T11:31:44.717Z,10.33
2018-05-01T11:32:48.877Z,9.57
2018-05-01T11:33:53.060Z,14.80
2018-05-01T11:34:57.233Z,14.87
2018-05-01T11:36:01.406Z,8.40
2018-05-01T11:37:05.619Z,13.27
2018-05-01T11:38:09.797Z,8.90
2018-05-01T11:39:13.960Z,13.43
2018-05-01T11:40:18.898Z,11.77
2018-05-01T11:41:23.134Z,20.47
2018-05-01T11:42:27.317Z,15.50
2018-05-01T11:43:31.524Z,8.20
2018-05-01T11:44:35.702Z,11.90
2018-05-01T11:45:39.881Z,7.83
2018-05-01T11:46:44.074Z,6.77
2018-05-01T11:47:48.266Z,10.37
2018-05-01T11:48:52.671Z,6.80
2018-05-01T11:49:56.853Z,10.37
2018-05-01T11:51:01.025Z,13.57
2018-05-01T11:52:05.286Z,13.53
2018-05-01T11:53:10.206Z,10.77
2018-05-01T11:54:14.792Z,8.87
2018-05-01T11:55:18.970Z,11.97
2018-05-01T11:56:23.134Z,10.30
2018-05-01T11:57:27.293Z,4.80
2018-05-01T11:58:31.499Z,9.87
2018-05-01T11:59:36.471Z,10.57
2018-05-01T12:00:40.671Z,14.13
2018-05-01T12:01:44.835Z,8.10
2018-05-01T12:02:49.761Z,7.27
2018-05-01T12:03:54.720Z,11.63
2018-05-01T12:04:58.895Z,9.80
2018-05-01T12:06:03.851Z,12.90
2018-05-01T12:07:08.039Z,10.50
2018-05-01T12:08:13.368Z,6.90
2018-05-01T12:09:18.310Z,7.90
2018-05-01T12:10:23.245Z,17.63
2018-05-01T12:11:27.423Z,5.93
2018-05-01T12:12:31.588Z,6.90
2018-05-01T12:13:35.825Z,4.47
2018-05-01T12:14:40.010Z,10.17
2018-05-01T12:15:44.189Z,4.80
2018-05-01T12:16:49.224Z,7.03
2018-05-01T12:17:53.394Z,8.87
2018-05-01T12:18:57.592Z,9.53
2018-05-01T12:20:01.950Z,5.33
2018-05-01T12:21:06.136Z,8.03
2018-05-01T12:22:10.312Z,7.83
2018-05-01T12:23:14.487Z,5.70
2018-05-01T12:24:18.645Z,6.50
2018-05-01T12:25:22.832Z,9.93
2018-05-01T12:26:27.018Z,6.80
2018-05-01T12:27:31.193Z,9.70
2018-05-01T12:28:35.377Z,8.03
2018-05-01T12:29:39.545Z,8.33
2018-05-01T12:30:43.723Z,5.57
2018-05-01T12:31:48.253Z,6.27
2018-05-01T12:32:53.195Z,11.87
2018-05-01T12:33:58.131Z,5.43
2018-05-01T12:35:02.307Z,7.57
2018-05-01T12:36:06.481Z,9.37
2018-05-01T12:37:10.870Z,9.17
2018-05-01T12:38:15.360Z,6.20
2018-05-01T12:39:20.299Z,7.30
2018-05-01T12:40:25.343Z,6.97
2018-05-01T12:41:29.518Z,4.97
2018-05-01T12:42:33.688Z,19.17
2018-05-01T12:43:38.104Z,4.60
2018-05-01T12:44:42.390Z,7.97
2018-05-01T12:45:46.557Z,6.20
2018-05-01T12:46:50.772Z,6.03
2018-05-01T12:47:54.961Z,6.07
2018-05-01T12:48:59.201Z,7.37
2018-05-01T12:50:04.213Z,17.50
2018-05-01T12:51:08.391Z,9.97
2018-05-01T12:52:12.570Z,4.37
2018-05-01T12:53:16.804Z,6.07
2018-05-01T12:54:21.047Z,10.87
2018-05-01T12:55:25.241Z,10.37
2018-05-01T12:56:29.417Z,13.70
2018-05-01T12:57:34.372Z,5.73
2018-05-01T12:58:38.580Z,11.37
2018-05-01T12:59:42.842Z,6.90
2018-05-01T13:00:47.011Z,6.73
2018-05-01T13:01:51.186Z,7.83
2018-05-01T13:02:56.170Z,4.70
2018-05-01T13:04:00.347Z,6.93
2018-05-01T13:05:04.814Z,8.23
2018-05-01T13:06:09.167Z,8.50
2018-05-01T13:07:13.365Z,12.23
2018-05-01T13:08:18.310Z,10.33
2018-05-01T13:09:22.482Z,8.77
2018-05-01T13:10:27.624Z,6.67
2018-05-01T13:11:32.597Z,5.97
2018-05-01T13:12:36.783Z,5.20
2018-05-01T13:13:40.954Z,13.90
2018-05-01T13:14:45.142Z,10.27
2018-05-01T13:15:50.038Z,9.03
2018-05-01T13:16:54.758Z,6.43
2018-05-01T13:17:58.921Z,9.90
2018-05-01T13:19:03.126Z,5.83
2018-05-01T13:20:07.353Z,9.87
2018-05-01T13:21:12.311Z,7.50
2018-05-01T13:22:17.732Z,10.03
2018-05-01T13:23:22.773Z,6.90
2018-05-01T13:24:27.723Z,5.57
2018-05-01T13:25:32.342Z,5.50
2018-05-01T13:26:36.541Z,7.63
2018-05-01T13:27:40.834Z,5.57
2018-05-01T13:28:44.993Z,5.60
2018-05-01T13:29:49.199Z,11.63
2018-05-01T13:30:53.428Z,12.50
2018-05-01T13:31:57.636Z,6.70
2018-05-01T13:33:01.813Z,5.40
2018-05-01T13:34:06.046Z,5.90
2018-05-01T13:35:10.225Z,8.33
2018-05-01T13:36:14.436Z,7.53
2018-05-01T13:37:18.647Z,11.63
2018-05-01T13:38:22.815Z,8.53
2018-05-01T13:39:27.068Z,7.63
2018-05-01T13:40:31.241Z,6.30
2018-05-01T13:41:35.453Z,7.13
2018-05-01T13:42:39.690Z,5.10
2018-05-01T13:43:44.637Z,8.97
2018-05-01T13:44:48.941Z,10.30
2018-05-01T13:45:53.917Z,15.20
2018-05-01T13:46:58.433Z,7.13
2018-05-01T13:48:02.698Z,5.37
2018-05-01T13:49:07.630Z,6.47
2018-05-01T13:50:11.813Z,10.87
2018-05-01T13:51:16.757Z,5.60
2018-05-01T13:52:21.836Z,6.30
2018-05-01T13:53:26.004Z,4.33
2018-05-01T13:54:30.199Z,7.00
2018-05-01T13:55:34.386Z,5.60
2018-05-01T13:56:38.549Z,4.33
2018-05-01T13:57:42.764Z,4.97
2018-05-01T13:58:46.941Z,6.30
2018-05-01T13:59:51.872Z,6.07
2018-05-01T14:00:56.800Z,4.53
2018-05-01T14:02:01.736Z,5.43
2018-05-01T14:03:05.974Z,4.57
2018-05-01T14:04:10.138Z,5.90
2018-05-01T14:05:15.081Z,9.40
2018-05-01T14:06:20.036Z,6.70
2018-05-01T14:07:24.208Z,7.77